Time;durP1;ratioP1;P1;durP2;ratioP2;P2;SDS_P1;SDS_P2;PMS_P1;PMS_P2;Temp;Humidity;BMP_temperature;BMP_pressure;BME280_temperature;BME280_humidity;BME280_pressure;Samples;Min_cycle;Max_cycle;Signal;HPM_P1;HPM_P2
2023/05/02 00:00:30;;;;;;;6.07;3.85;;;;;;;-145.41;100.00;58600.66;4994510;28;20034;-73
2023/05/02 00:02:55;;;;;;;7.05;4.05;;;;;;;-145.41;100.00;58600.66;4994316;28;20034;-73
2023/05/02 00:05:21;;;;;;;7.30;4.30;;;;;;;-145.41;100.00;58600.66;4994524;28;20050;-73
2023/05/02 00:07:46;;;;;;;8.77;5.07;;;;;;;-145.41;100.00;58600.66;4994970;28;20038;-73
2023/05/02 00:10:12;;;;;;;10.00;4.78;;;;;;;-145.41;100.00;58600.66;4994388;28;20026;-73
2023/05/02 00:12:37;;;;;;;9.10;4.50;;;;;;;-145.41;100.00;58600.66;4994473;28;20508;-73
2023/05/02 00:15:03;;;;;;;9.35;5.40;;;;;;;-145.41;100.00;58600.66;4994579;28;20057;-73
2023/05/02 00:17:29;;;;;;;7.60;4.25;;;;;;;-145.41;100.00;58600.66;4991117;28;20092;-73
2023/05/02 00:19:54;;;;;;;8.13;4.60;;;;;;;-145.41;100.00;58600.66;4992854;28;20042;-73
2023/05/02 00:22:20;;;;;;;8.38;4.80;;;;;;;-145.41;100.00;58600.66;4994374;28;20039;-73
2023/05/02 00:24:45;;;;;;;6.88;4.50;;;;;;;-145.41;100.00;58600.66;4994447;28;20034;-73
2023/05/02 00:27:10;;;;;;;7.80;4.32;;;;;;;-145.41;100.00;58600.66;4994365;28;20042;-73
2023/05/02 00:29:36;;;;;;;7.93;4.60;;;;;;;-145.41;100.00;58600.66;4984374;28;20041;-72
2023/05/02 00:32:01;;;;;;;8.27;4.35;;;;;;;-145.41;100.00;58600.66;4993953;28;20084;-73
2023/05/02 00:34:30;;;;;;;8.55;5.90;;;;;;;-145.41;100.00;58600.66;4993955;28;20042;-73
2023/05/02 00:36:56;;;;;;;9.30;5.97;;;;;;;-145.41;100.00;58600.66;4976631;28;20034;-73
2023/05/02 00:39:21;;;;;;;7.53;4.85;;;;;;;-145.41;100.00;58600.66;4973226;28;20090;-73
2023/05/02 00:41:47;;;;;;;11.63;5.55;;;;;;;-145.41;100.00;58600.66;4990100;28;20045;-73
2023/05/02 00:44:12;;;;;;;7.57;4.70;;;;;;;-145.41;100.00;58600.66;4993765;28;20041;-73
2023/05/02 00:46:38;;;;;;;7.68;4.57;;;;;;;-145.41;100.00;58600.66;4984131;28;20034;-73
2023/05/02 00:49:03;;;;;;;8.02;4.95;;;;;;;-145.41;100.00;58600.66;4993395;28;20123;-73
2023/05/02 00:51:29;;;;;;;8.32;5.93;;;;;;;-145.41;100.00;58600.66;4993781;28;20487;-73
2023/05/02 00:53:56;;;;;;;9.23;5.15;;;;;;;-145.41;100.00;58600.66;4984646;28;20069;-73
2023/05/02 00:56:22;;;;;;;9.63;5.22;;;;;;;-145.41;100.00;58600.66;4993772;28;20100;-73
2023/05/02 00:58:47;;;;;;;8.88;5.65;;;;;;;-145.41;100.00;58600.66;4976030;28;20038;-73
2023/05/02 01:01:32;;;;;;;12.30;6.07;;;;;;;-145.41;100.00;58600.66;4993514;28;20056;-74
2023/05/02 01:04:20;;;;;;;10.50;5.97;;;;;;;-145.41;100.00;58600.66;4993663;28;20039;-73
2023/05/02 01:07:16;;;;;;;10.38;6.30;;;;;;;-145.41;100.00;58600.66;4974423;28;20080;-73
2023/05/02 01:10:20;;;;;;;7.07;5.40;;;;;;;-145.41;100.00;58600.66;4993557;28;20066;-73
2023/05/02 01:12:59;;;;;;;9.45;5.32;;;;;;;-145.41;100.00;58600.66;4972841;28;20034;-72
2023/05/02 01:15:25;;;;;;;9.05;5.65;;;;;;;-145.41;100.00;58600.66;4976022;28;20393;-73
2023/05/02 01:17:53;;;;;;;9.60;5.80;;;;;;;-145.41;100.00;58600.66;4993258;28;20049;-73
2023/05/02 01:20:22;;;;;;;9.23;5.90;;;;;;;-145.41;100.00;58600.66;4975616;28;20065;-73
2023/05/02 01:22:48;;;;;;;10.55;5.80;;;;;;;-145.41;100.00;58600.66;4975805;28;20034;-73
2023/05/02 01:25:51;;;;;;;8.18;5.45;;;;;;;-145.41;100.00;58600.66;4993211;28;20481;-72
2023/05/02 01:28:54;;;;;;;8.65;6.28;;;;;;;-145.41;100.00;58600.66;4990535;28;20053;-73
2023/05/02 01:31:23;;;;;;;10.63;6.25;;;;;;;-145.41;100.00;58600.66;4991574;28;20044;-73
2023/05/02 01:33:51;;;;;;;12.23;6.47;;;;;;;-145.41;100.00;58600.66;4975571;28;20128;-73
2023/05/02 01:36:16;;;;;;;9.60;6.57;;;;;;;-145.41;100.00;58600.66;4975631;28;20089;-73
2023/05/02 01:38:43;;;;;;;12.18;6.07;;;;;;;-145.41;100.00;58600.66;4992696;28;20034;-72
2023/05/02 01:41:11;;;;;;;10.82;6.45;;;;;;;-145.41;100.00;58600.66;4992779;28;20041;-72
2023/05/02 01:43:37;;;;;;;13.23;6.85;;;;;;;-145.41;100.00;58600.66;4989146;28;20030;-73
2023/05/02 01:46:06;;;;;;;9.38;6.55;;;;;;;-145.41;100.00;58600.66;4975445;28;20033;-73
2023/05/02 01:48:32;;;;;;;10.45;6.63;;;;;;;-145.41;100.00;58600.66;4992842;28;20053;-73
2023/05/02 01:50:58;;;;;;;11.32;7.28;;;;;;;-145.41;100.00;58600.66;4974901;28;20133;-73
2023/05/02 01:53:27;;;;;;;9.75;6.50;;;;;;;-145.41;100.00;58600.66;4992462;28;20529;-73
2023/05/02 01:55:55;;;;;;;8.48;6.45;;;;;;;-145.41;100.00;58600.66;4975298;28;20037;-73
2023/05/02 01:58:22;;;;;;;11.48;7.25;;;;;;;-145.41;100.00;58600.66;4992518;28;20042;-73
2023/05/02 02:00:50;;;;;;;12.50;7.97;;;;;;;-145.41;100.00;58600.66;4992262;28;20022;-73
2023/05/02 02:03:16;;;;;;;13.40;7.30;;;;;;;-145.41;100.00;58600.66;4975112;28;20026;-73
2023/05/02 02:05:42;;;;;;;11.70;7.40;;;;;;;-145.41;100.00;58600.66;4992541;28;20038;-73
2023/05/02 02:08:08;;;;;;;13.70;7.93;;;;;;;-145.41;100.00;58600.66;4992392;28;20044;-73
2023/05/02 02:10:42;;;;;;;9.77;7.25;;;;;;;-145.41;100.00;58600.66;4974614;28;20042;-73
2023/05/02 02:13:21;;;;;;;10.60;7.65;;;;;;;-145.41;100.00;58600.66;4988849;28;20034;-73
2023/05/02 02:15:49;;;;;;;11.23;7.00;;;;;;;-145.41;100.00;58600.66;4974913;28;20073;-73
2023/05/02 02:18:25;;;;;;;11.07;7.80;;;;;;;-145.41;100.00;58600.66;4958561;28;20565;-73
2023/05/02 02:20:52;;;;;;;12.20;7.63;;;;;;;-145.41;100.00;58600.66;4988812;28;20053;-73
2023/05/02 02:23:24;;;;;;;10.50;7.28;;;;;;;-145.41;100.00;58600.66;4973831;28;20405;-73
2023/05/02 02:25:51;;;;;;;12.25;7.63;;;;;;;-145.41;100.00;58600.66;4986716;28;20042;-72
2023/05/02 02:28:17;;;;;;;11.88;7.25;;;;;;;-145.41;100.00;58600.66;4992136;28;20044;-73
2023/05/02 02:30:42;;;;;;;11.27;7.28;;;;;;;-145.41;100.00;58600.66;4958148;28;20109;-73
2023/05/02 02:33:07;;;;;;;10.20;6.90;;;;;;;-145.41;100.00;58600.66;4992056;28;20548;-73
2023/05/02 02:35:39;;;;;;;10.10;7.57;;;;;;;-145.41;100.00;58600.66;4992091;28;20069;-73
2023/05/02 02:38:23;;;;;;;10.90;7.60;;;;;;;-145.41;100.00;58600.66;4977067;28;20042;-73
2023/05/02 02:40:54;;;;;;;11.30;7.93;;;;;;;-145.41;100.00;58600.66;4989953;28;20260;-73
2023/05/02 02:43:39;;;;;;;11.73;7.75;;;;;;;-145.41;100.00;58600.66;4974458;28;20481;-73
2023/05/02 02:46:21;;;;;;;10.55;7.55;;;;;;;-145.41;100.00;58600.66;4987220;28;20421;-73
2023/05/02 02:48:55;;;;;;;9.77;6.93;;;;;;;-145.41;100.00;58600.66;4987763;28;20486;-73
2023/05/02 02:51:40;;;;;;;10.55;7.93;;;;;;;-145.41;100.00;58600.66;4980076;28;20393;-73
2023/05/02 02:54:20;;;;;;;11.18;7.40;;;;;;;-145.41;100.00;58600.66;4967548;28;20086;-73
2023/05/02 02:56:49;;;;;;;13.95;8.82;;;;;;;-145.41;100.00;58600.66;4974328;28;20116;-73
2023/05/02 02:59:22;;;;;;;9.65;7.30;;;;;;;-145.41;100.00;58600.66;4991446;28;20046;-72
2023/05/02 03:01:58;;;;;;;13.38;8.55;;;;;;;-145.41;100.00;58600.66;4987723;28;20034;-72
2023/05/02 03:04:26;;;;;;;10.25;7.38;;;;;;;-145.41;100.00;58600.66;4971681;28;20461;-73
2023/05/02 03:06:51;;;;;;;11.82;8.15;;;;;;;-145.41;100.00;58600.66;4991755;28;20056;-73
2023/05/02 03:09:17;;;;;;;10.95;8.35;;;;;;;-145.41;100.00;58600.66;4974724;28;20573;-73
2023/05/02 03:11:45;;;;;;;11.98;8.68;;;;;;;-145.41;100.00;58600.66;4974155;28;20410;-73
2023/05/02 03:14:11;;;;;;;12.85;8.40;;;;;;;-145.41;100.00;58600.66;4974216;28;20030;-73
2023/05/02 03:16:39;;;;;;;10.23;7.65;;;;;;;-145.41;100.00;58600.66;4974423;28;20049;-73
2023/05/02 03:19:08;;;;;;;9.65;7.28;;;;;;;-145.41;100.00;58600.66;4974045;28;20031;-73
2023/05/02 03:21:34;;;;;;;10.27;7.40;;;;;;;-145.41;100.00;58600.66;4982167;28;20532;-74
2023/05/02 03:24:06;;;;;;;10.77;7.55;;;;;;;-145.41;100.00;58600.66;4971109;28;20041;-73
2023/05/02 03:26:31;;;;;;;13.40;7.78;;;;;;;-145.41;100.00;58600.66;4991599;28;20493;-73
2023/05/02 03:28:57;;;;;;;14.48;8.35;;;;;;;-145.41;100.00;58600.66;4968223;28;20579;-73
2023/05/02 03:31:28;;;;;;;10.48;7.45;;;;;;;-145.41;100.00;58600.66;4981267;28;20128;-72
2023/05/02 03:33:53;;;;;;;11.55;7.55;;;;;;;-145.41;100.00;58600.66;4997709;28;20078;-71
2023/05/02 03:36:19;;;;;;;12.05;7.93;;;;;;;-145.41;100.00;58600.66;4986173;28;20405;-72
2023/05/02 03:38:45;;;;;;;10.88;7.70;;;;;;;-145.41;100.00;58600.66;4988093;28;20370;-72
2023/05/02 03:41:12;;;;;;;11.52;7.97;;;;;;;-145.41;100.00;58600.66;4986840;28;20033;-72
2023/05/02 03:43:38;;;;;;;11.10;7.45;;;;;;;-145.41;100.00;58600.66;4977450;28;20086;-72
2023/05/02 03:46:06;;;;;;;10.07;7.40;;;;;;;-145.41;100.00;58600.66;4994862;28;20103;-72
2023/05/02 03:48:34;;;;;;;12.25;7.85;;;;;;;-145.41;100.00;58600.66;4974090;28;20022;-75
2023/05/02 03:51:01;;;;;;;12.10;7.50;;;;;;;-145.41;100.00;58600.66;4989535;28;20038;-72
2023/05/02 03:53:29;;;;;;;11.40;6.88;;;;;;;-145.41;100.00;58600.66;4973539;28;20026;-73
2023/05/02 03:55:57;;;;;;;10.93;7.15;;;;;;;-145.41;100.00;58600.66;4977390;28;20038;-74
2023/05/02 03:58:30;;;;;;;9.77;7.22;;;;;;;-145.41;100.00;58600.66;4985176;28;20069;-73
2023/05/02 04:00:56;;;;;;;10.20;7.38;;;;;;;-145.41;100.00;58600.66;4982855;28;20061;-73
2023/05/02 04:03:23;;;;;;;10.35;7.20;;;;;;;-145.41;100.00;58600.66;4984962;28;20036;-73
2023/05/02 04:05:50;;;;;;;8.68;6.47;;;;;;;-145.41;100.00;58600.66;4976023;28;20038;-73
2023/05/02 04:08:17;;;;;;;9.85;6.30;;;;;;;-145.41;100.00;58600.66;4976771;28;20405;-73
2023/05/02 04:10:43;;;;;;;10.90;6.53;;;;;;;-145.41;100.00;58600.66;4972346;28;20031;-73
2023/05/02 04:13:10;;;;;;;9.57;6.43;;;;;;;-145.41;100.00;58600.66;4975940;28;20469;-73
2023/05/02 04:15:38;;;;;;;10.00;6.40;;;;;;;-145.41;100.00;58600.66;4972357;28;20034;-73
2023/05/02 04:18:05;;;;;;;9.40;6.18;;;;;;;-145.41;100.00;58600.66;4992985;28;20034;-73
2023/05/02 04:20:31;;;;;;;8.82;6.22;;;;;;;-145.41;100.00;58600.66;4976523;28;20026;-73
2023/05/02 04:22:57;;;;;;;9.27;6.40;;;;;;;-145.41;100.00;58600.66;4976138;28;20084;-73
2023/05/02 04:25:23;;;;;;;11.45;6.78;;;;;;;-145.41;100.00;58600.66;4984593;28;20034;-73
2023/05/02 04:27:50;;;;;;;11.35;7.97;;;;;;;-145.41;100.00;58600.66;4978185;28;20088;-72
2023/05/02 04:30:19;;;;;;;12.60;7.53;;;;;;;-145.41;100.00;58600.66;4975866;28;20125;-72
2023/05/02 04:32:54;;;;;;;9.88;6.60;;;;;;;-145.41;100.00;58600.66;4976065;28;20038;-72
2023/05/02 04:35:19;;;;;;;10.00;6.63;;;;;;;-145.41;100.00;58600.66;4984152;28;20044;-72
2023/05/02 04:37:45;;;;;;;8.27;6.07;;;;;;;-145.41;100.00;58600.66;4976902;28;20473;-73
2023/05/02 04:40:11;;;;;;;10.68;7.00;;;;;;;-145.41;100.00;58600.66;4974547;28;20038;-73
2023/05/02 04:42:37;;;;;;;11.45;7.30;;;;;;;-145.41;100.00;58600.66;4974191;28;20053;-73
2023/05/02 04:45:10;;;;;;;10.48;6.63;;;;;;;-145.41;100.00;58600.66;4984754;28;20026;-72
2023/05/02 04:47:35;;;;;;;8.73;6.85;;;;;;;-145.41;100.00;58600.66;4990486;28;20041;-73
2023/05/02 04:50:01;;;;;;;14.85;6.65;;;;;;;-145.41;100.00;58600.66;4975047;28;20460;-73
2023/05/02 04:52:27;;;;;;;8.13;5.85;;;;;;;-145.41;100.00;58600.66;4964095;28;20030;-73
2023/05/02 04:54:53;;;;;;;10.20;5.93;;;;;;;-145.41;100.00;58600.66;4972557;28;20025;-72
2023/05/02 04:57:18;;;;;;;10.32;6.70;;;;;;;-145.41;100.00;58600.66;4993410;28;20504;-75
2023/05/02 04:59:48;;;;;;;9.85;6.25;;;;;;;-145.41;100.00;58600.66;4980569;28;20127;-74
2023/05/02 05:02:13;;;;;;;36.03;22.92;;;;;;;-145.41;100.00;58600.66;4992657;28;20633;-75
2023/05/02 05:04:39;;;;;;;22.45;17.85;;;;;;;-145.41;100.00;58600.66;4975085;28;20513;-76
2023/05/02 05:07:06;;;;;;;12.05;9.80;;;;;;;-145.41;100.00;58600.66;4993434;28;20049;-75
2023/05/02 05:09:31;;;;;;;11.65;7.35;;;;;;;-145.41;100.00;58600.66;4975683;28;20413;-75
2023/05/02 05:11:57;;;;;;;34.90;23.08;;;;;;;-145.41;100.00;58600.66;4979815;28;20120;-75
2023/05/02 05:14:23;;;;;;;10.68;7.45;;;;;;;-145.41;100.00;58600.66;4972668;28;20022;-75
2023/05/02 05:16:51;;;;;;;10.73;5.68;;;;;;;-145.41;100.00;58600.66;4992270;28;20038;-75
2023/05/02 05:19:17;;;;;;;7.72;5.28;;;;;;;-145.41;100.00;58600.66;4993118;28;20033;-75
2023/05/02 05:21:42;;;;;;;10.75;6.57;;;;;;;-145.41;100.00;58600.66;4975818;28;20030;-75
2023/05/02 05:24:08;;;;;;;10.52;5.88;;;;;;;-145.41;100.00;58600.66;4983389;28;20049;-75
2023/05/02 05:26:33;;;;;;;8.30;5.20;;;;;;;-145.41;100.00;58600.66;4982941;28;20034;-75
2023/05/02 05:28:59;;;;;;;7.93;5.25;;;;;;;-145.41;100.00;58600.66;4975272;28;20092;-75
2023/05/02 05:31:29;;;;;;;9.93;5.75;;;;;;;-145.41;100.00;58600.66;4978291;28;20034;-75
2023/05/02 05:33:57;;;;;;;7.95;5.55;;;;;;;-145.41;100.00;58600.66;4983979;28;20035;-75
2023/05/02 05:36:24;;;;;;;10.25;6.40;;;;;;;-145.41;100.00;58600.66;4975570;28;20505;-75
2023/05/02 05:38:50;;;;;;;9.85;6.50;;;;;;;-145.41;100.00;58600.66;4976517;28;20042;-75
2023/05/02 05:41:15;;;;;;;9.30;4.85;;;;;;;-145.41;100.00;58600.66;4975270;28;20640;-75
2023/05/02 05:43:45;;;;;;;10.18;4.97;;;;;;;-145.41;100.00;58600.66;4975526;28;20493;-75
2023/05/02 05:46:11;;;;;;;7.60;5.00;;;;;;;-145.41;100.00;58600.66;4983772;28;20062;-75
2023/05/02 05:48:36;;;;;;;7.63;4.35;;;;;;;-145.41;100.00;58600.66;4992695;28;20033;-75
2023/05/02 05:51:04;;;;;;;6.40;4.70;;;;;;;-145.41;100.00;58600.66;4979203;28;20030;-75
2023/05/02 05:53:29;;;;;;;7.47;4.20;;;;;;;-145.41;100.00;58600.66;4974167;28;20042;-75
2023/05/02 05:55:56;;;;;;;8.30;4.78;;;;;;;-145.41;100.00;58600.66;4990219;28;20084;-77
2023/05/02 05:58:22;;;;;;;8.20;4.40;;;;;;;-145.41;100.00;58600.66;4961689;28;20038;-77
2023/05/02 06:00:49;;;;;;;7.88;4.68;;;;;;;-145.41;100.00;58600.66;4974441;28;20042;-77
2023/05/02 06:03:15;;;;;;;7.72;4.30;;;;;;;-145.41;100.00;58600.66;4955508;28;20516;-77
2023/05/02 06:05:41;;;;;;;6.60;4.55;;;;;;;-145.41;100.00;58600.66;4973610;28;20054;-77
2023/05/02 06:08:06;;;;;;;8.68;4.30;;;;;;;-145.41;100.00;58600.66;4977453;28;20177;-77
2023/05/02 06:10:32;;;;;;;10.02;4.43;;;;;;;-145.41;100.00;58600.66;4983884;28;20617;-75
2023/05/02 06:12:57;;;;;;;6.70;3.90;;;;;;;-145.41;100.00;58600.66;4990911;28;20037;-75
2023/05/02 06:15:27;;;;;;;8.40;4.32;;;;;;;-145.41;100.00;58600.66;4971582;28;20034;-75
2023/05/02 06:17:53;;;;;;;7.75;4.20;;;;;;;-145.41;100.00;58600.66;4992125;28;20044;-75
2023/05/02 06:20:18;;;;;;;5.70;3.90;;;;;;;-145.41;100.00;58600.66;4996687;28;20050;-75
2023/05/02 06:22:43;;;;;;;8.63;4.07;;;;;;;-145.41;100.00;58600.66;4999148;28;20030;-75
2023/05/02 06:25:09;;;;;;;6.72;3.90;;;;;;;-145.41;100.00;58600.66;4993713;28;20124;-75
2023/05/02 06:27:34;;;;;;;7.95;4.22;;;;;;;-145.41;100.00;58600.66;4992234;28;20081;-75
2023/05/02 06:30:00;;;;;;;6.97;4.53;;;;;;;-145.41;100.00;58600.66;4991806;28;20108;-75
2023/05/02 06:32:29;;;;;;;7.28;4.45;;;;;;;-145.41;100.00;58600.66;4991947;28;20168;-75
2023/05/02 06:34:55;;;;;;;7.15;4.30;;;;;;;-145.41;100.00;58600.66;4991979;28;20042;-75
2023/05/02 06:37:20;;;;;;;8.90;4.35;;;;;;;-145.41;100.00;58600.66;4992615;28;20042;-76
2023/05/02 06:39:46;;;;;;;7.95;4.65;;;;;;;-145.41;100.00;58600.66;4991676;28;20161;-76
2023/05/02 06:42:11;;;;;;;7.60;4.47;;;;;;;-145.41;100.00;58600.66;4991684;28;20493;-75
2023/05/02 06:44:37;;;;;;;9.73;4.80;;;;;;;-145.41;100.00;58600.66;4991738;28;20481;-76
2023/05/02 06:47:03;;;;;;;7.97;4.57;;;;;;;-145.41;100.00;58600.66;4991774;28;20112;-76
2023/05/02 06:49:29;;;;;;;9.95;4.38;;;;;;;-145.41;100.00;58600.66;4991563;28;20046;-76
2023/05/02 06:51:54;;;;;;;9.82;6.05;;;;;;;-145.41;100.00;58600.66;4990952;28;20408;-75
2023/05/02 06:54:20;;;;;;;9.35;5.18;;;;;;;-145.41;100.00;58600.66;4989067;28;20465;-76
2023/05/02 06:56:46;;;;;;;7.38;4.88;;;;;;;-145.41;100.00;58600.66;4991628;28;20038;-76
2023/05/02 06:59:11;;;;;;;8.65;5.32;;;;;;;-145.41;100.00;58600.66;4990984;28;20093;-76
2023/05/02 07:01:36;;;;;;;9.13;5.07;;;;;;;-145.41;100.00;58600.66;4991312;28;20374;-76
2023/05/02 07:04:04;;;;;;;10.02;6.20;;;;;;;-145.41;100.00;58600.66;4973060;28;20038;-76
2023/05/02 07:06:30;;;;;;;9.60;5.63;;;;;;;-145.41;100.00;58600.66;4995103;28;20100;-76
2023/05/02 07:08:55;;;;;;;9.35;4.93;;;;;;;-145.41;100.00;58600.66;4995287;28;20034;-76
2023/05/02 07:11:22;;;;;;;7.45;4.68;;;;;;;-145.41;100.00;58600.66;4995525;28;20484;-76
2023/05/02 07:13:48;;;;;;;6.60;4.03;;;;;;;-145.41;100.00;58600.66;4995492;28;20034;-76
2023/05/02 07:16:14;;;;;;;9.25;5.85;;;;;;;-145.41;100.00;58600.66;4993861;28;20042;-76
2023/05/02 07:18:39;;;;;;;7.82;5.53;;;;;;;-145.41;100.00;58600.66;4995407;28;20127;-76
2023/05/02 07:21:04;;;;;;;8.95;6.00;;;;;;;-145.41;100.00;58600.66;4995466;28;20571;-76
2023/05/02 07:23:30;;;;;;;8.00;4.57;;;;;;;-145.41;100.00;58600.66;4995328;28;20036;-76
2023/05/02 07:25:55;;;;;;;9.25;4.72;;;;;;;-145.41;100.00;58600.66;4995454;28;20113;-76
2023/05/02 07:28:20;;;;;;;8.27;4.55;;;;;;;-145.41;100.00;58600.66;4985713;28;20034;-76
2023/05/02 07:30:46;;;;;;;8.00;4.65;;;;;;;-145.41;100.00;58600.66;4994901;28;20026;-76
2023/05/02 07:33:11;;;;;;;6.97;4.72;;;;;;;-145.41;100.00;58600.66;4961627;28;20038;-76
2023/05/02 07:35:36;;;;;;;6.60;4.10;;;;;;;-145.41;100.00;58600.66;4995140;28;20049;-76
2023/05/02 07:38:02;;;;;;;6.53;4.28;;;;;;;-145.41;100.00;58600.66;4995007;28;20057;-76
2023/05/02 07:40:27;;;;;;;5.88;4.30;;;;;;;-145.41;100.00;58600.66;4995037;28;20543;-76
2023/05/02 07:42:52;;;;;;;5.90;4.63;;;;;;;-145.41;100.00;58600.66;4995026;28;20453;-76
2023/05/02 07:45:18;;;;;;;6.00;3.53;;;;;;;-145.41;100.00;58600.66;4995038;28;20070;-76
2023/05/02 07:47:45;;;;;;;7.88;4.55;;;;;;;-145.41;100.00;58600.66;4995033;28;20042;-76
2023/05/02 07:50:10;;;;;;;5.47;3.67;;;;;;;-145.41;100.00;58600.66;4994630;28;20042;-76
2023/05/02 07:52:35;;;;;;;7.47;4.13;;;;;;;-145.41;100.00;58600.66;4994556;28;20041;-76
2023/05/02 07:55:01;;;;;;;6.13;3.95;;;;;;;-145.41;100.00;58600.66;4994972;28;20066;-76
2023/05/02 07:57:26;;;;;;;7.38;4.03;;;;;;;-145.41;100.00;58600.66;4994690;28;20042;-76
2023/05/02 07:59:51;;;;;;;7.53;4.60;;;;;;;-145.41;100.00;58600.66;4994573;28;20093;-76
2023/05/02 08:02:18;;;;;;;8.02;4.03;;;;;;;-145.41;100.00;58600.66;4994617;28;20035;-76
2023/05/02 08:04:46;;;;;;;9.93;5.32;;;;;;;-145.41;100.00;58600.66;4994645;28;20041;-76
2023/05/02 08:07:11;;;;;;;6.22;3.92;;;;;;;-145.41;100.00;58600.66;4992964;28;20042;-76
2023/05/02 08:09:36;;;;;;;5.90;4.13;;;;;;;-145.41;100.00;58600.66;4994523;28;20042;-76
2023/05/02 08:12:02;;;;;;;7.38;4.18;;;;;;;-145.41;100.00;58600.66;4994621;28;20034;-76
2023/05/02 08:14:27;;;;;;;7.72;4.30;;;;;;;-145.41;100.00;58600.66;4984817;28;20046;-76
2023/05/02 08:16:53;;;;;;;6.50;3.80;;;;;;;-145.41;100.00;58600.66;4993943;28;20042;-76
2023/05/02 08:19:18;;;;;;;7.15;4.00;;;;;;;-145.41;100.00;58600.66;4993883;28;20101;-76
2023/05/02 08:21:43;;;;;;;6.35;3.95;;;;;;;-145.41;100.00;58600.66;4989632;28;20049;-76
2023/05/02 08:24:09;;;;;;;8.43;4.80;;;;;;;-145.41;100.00;58600.66;4985212;28;20115;-76
2023/05/02 08:26:34;;;;;;;9.52;5.82;;;;;;;-145.41;100.00;58600.66;4994669;28;20030;-76
2023/05/02 08:29:00;;;;;;;9.73;5.70;;;;;;;-145.41;100.00;58600.66;4993906;28;20166;-76
2023/05/02 08:31:25;;;;;;;7.60;4.38;;;;;;;-145.41;100.00;58600.66;4993902;28;20045;-76
2023/05/02 08:33:50;;;;;;;7.47;5.03;;;;;;;-145.41;100.00;58600.66;4993957;28;20038;-76
2023/05/02 08:36:17;;;;;;;12.25;4.65;;;;;;;-145.41;100.00;58600.66;4994032;28;20040;-76
2023/05/02 08:38:43;;;;;;;9.20;5.50;;;;;;;-145.41;100.00;58600.66;4993850;28;20477;-76
2023/05/02 08:41:16;;;;;;;8.27;5.15;;;;;;;-145.41;100.00;58600.66;4993910;28;20033;-76
2023/05/02 08:43:42;;;;;;;7.20;5.07;;;;;;;-145.41;100.00;58600.66;4990731;28;20493;-76
2023/05/02 08:46:11;;;;;;;8.25;4.60;;;;;;;-145.41;100.00;58600.66;4993982;28;20030;-76
2023/05/02 08:48:39;;;;;;;6.85;4.65;;;;;;;-145.41;100.00;58600.66;4993798;28;20374;-76
2023/05/02 08:51:09;;;;;;;8.20;4.95;;;;;;;-145.41;100.00;58600.66;4993462;28;20100;-76
2023/05/02 08:53:35;;;;;;;12.10;5.63;;;;;;;-145.41;100.00;58600.66;4993808;28;20034;-76
2023/05/02 08:56:01;;;;;;;9.00;4.55;;;;;;;-145.41;100.00;58600.66;4993681;28;20026;-76
2023/05/02 08:58:29;;;;;;;8.32;5.10;;;;;;;-145.41;100.00;58600.66;4993778;28;20417;-76
2023/05/02 09:00:55;;;;;;;9.57;5.10;;;;;;;-145.41;100.00;58600.66;4993287;28;20628;-76
2023/05/02 09:03:32;;;;;;;8.43;5.53;;;;;;;-145.41;100.00;58600.66;4993243;28;20034;-76
2023/05/02 09:06:08;;;;;;;7.63;5.07;;;;;;;-145.41;100.00;58600.66;4990492;28;20049;-76
2023/05/02 09:08:34;;;;;;;6.55;4.93;;;;;;;-145.41;100.00;58600.66;4993139;28;20117;-76
2023/05/02 09:11:02;;;;;;;10.50;6.10;;;;;;;-145.41;100.00;58600.66;4975828;28;20450;-76
2023/05/02 09:13:47;;;;;;;9.30;5.45;;;;;;;-145.41;100.00;58600.66;4975839;28;20504;-76
2023/05/02 09:16:21;;;;;;;8.82;5.22;;;;;;;-145.41;100.00;58600.66;4991516;28;20034;-76
2023/05/02 09:18:49;;;;;;;9.85;5.63;;;;;;;-145.41;100.00;58600.66;4984302;28;20030;-76
2023/05/02 09:21:20;;;;;;;9.73;5.40;;;;;;;-145.41;100.00;58600.66;4993332;28;20033;-76
2023/05/02 09:23:57;;;;;;;8.95;5.60;;;;;;;-145.41;100.00;58600.66;4987815;28;20446;-76
2023/05/02 09:26:31;;;;;;;9.00;5.53;;;;;;;-145.41;100.00;58600.66;4993176;28;20038;-76
2023/05/02 09:28:58;;;;;;;9.98;6.03;;;;;;;-145.41;100.00;58600.66;4992220;28;20065;-76
2023/05/02 09:31:26;;;;;;;9.85;6.68;;;;;;;-145.41;100.00;58600.66;4992991;28;20045;-76
2023/05/02 09:33:52;;;;;;;12.73;7.50;;;;;;;-145.41;100.00;58600.66;4989247;28;20034;-76
2023/05/02 09:36:19;;;;;;;11.30;7.93;;;;;;;-145.41;100.00;58600.66;4993002;28;20034;-76
2023/05/02 09:38:47;;;;;;;11.40;8.50;;;;;;;-145.41;100.00;58600.66;4978395;28;20085;-76
2023/05/02 09:41:13;;;;;;;9.93;7.03;;;;;;;-145.41;100.00;58600.66;4992793;28;20038;-76
2023/05/02 09:43:39;;;;;;;11.48;7.85;;;;;;;-145.41;100.00;58600.66;4992801;28;20033;-76
2023/05/02 09:46:06;;;;;;;11.18;7.40;;;;;;;-145.41;100.00;58600.66;4992827;28;20423;-76
2023/05/02 09:48:50;;;;;;;11.75;7.95;;;;;;;-145.41;100.00;58600.66;4992733;28;20188;-76
2023/05/02 09:51:17;;;;;;;11.88;7.25;;;;;;;-145.41;100.00;58600.66;4974002;28;20038;-76
2023/05/02 09:53:44;;;;;;;9.75;7.38;;;;;;;-145.41;100.00;58600.66;4992557;28;20034;-76
2023/05/02 09:56:10;;;;;;;9.90;7.43;;;;;;;-145.41;100.00;58600.66;4975209;28;20042;-76
2023/05/02 09:58:35;;;;;;;10.85;6.85;;;;;;;-145.41;100.00;58600.66;4975335;28;20042;-75
2023/05/02 10:01:01;;;;;;;14.82;6.85;;;;;;;-145.41;100.00;58600.66;4992199;28;20034;-76
2023/05/02 10:03:28;;;;;;;8.77;6.45;;;;;;;-145.41;100.00;58600.66;4992329;28;20034;-76
2023/05/02 10:05:55;;;;;;;10.07;6.68;;;;;;;-145.41;100.00;58600.66;4990972;28;20037;-76
2023/05/02 10:08:23;;;;;;;12.30;7.93;;;;;;;-145.41;100.00;58600.66;4991475;28;20520;-76
2023/05/02 10:10:55;;;;;;;10.70;7.43;;;;;;;-145.41;100.00;58600.66;4991660;28;20121;-76
2023/05/02 10:13:23;;;;;;;9.90;7.22;;;;;;;-145.41;100.00;58600.66;4973223;28;20038;-76
2023/05/02 10:15:57;;;;;;;11.00;7.47;;;;;;;-145.41;100.00;58600.66;4991348;28;20335;-76
2023/05/02 10:18:27;;;;;;;8.50;6.50;;;;;;;-145.41;100.00;58600.66;4989183;28;20048;-76
2023/05/02 10:21:04;;;;;;;8.85;6.18;;;;;;;-145.41;100.00;58600.66;4991905;28;20038;-76
2023/05/02 10:23:29;;;;;;;9.63;6.53;;;;;;;-145.41;100.00;58600.66;4991442;28;20042;-76
2023/05/02 10:25:57;;;;;;;10.50;6.90;;;;;;;-145.41;100.00;58600.66;4986677;28;20389;-76
2023/05/02 10:28:22;;;;;;;11.40;6.78;;;;;;;-145.41;100.00;58600.66;4991807;28;20097;-76
2023/05/02 10:30:49;;;;;;;11.88;8.30;;;;;;;-145.41;100.00;58600.66;4986420;28;20034;-76
2023/05/02 10:33:16;;;;;;;12.13;8.35;;;;;;;-145.41;100.00;58600.66;4991864;28;20485;-76
2023/05/02 10:35:45;;;;;;;12.05;8.00;;;;;;;-145.41;100.00;58600.66;4991962;28;20034;-76
2023/05/02 10:38:14;;;;;;;11.75;7.78;;;;;;;-145.41;100.00;58600.66;4991544;28;20118;-76
2023/05/02 10:40:40;;;;;;;11.60;7.65;;;;;;;-145.41;100.00;58600.66;4987683;28;20093;-76
2023/05/02 10:43:07;;;;;;;12.13;8.77;;;;;;;-145.41;100.00;58600.66;4990023;28;20042;-76
2023/05/02 10:45:36;;;;;;;12.68;9.07;;;;;;;-145.41;100.00;58600.66;4991686;28;20551;-76
2023/05/02 10:48:16;;;;;;;13.60;8.60;;;;;;;-145.41;100.00;58600.66;4991791;28;20053;-76
2023/05/02 10:50:50;;;;;;;13.85;8.88;;;;;;;-145.41;100.00;58600.66;4988460;28;20469;-76
2023/05/02 10:53:24;;;;;;;12.48;8.57;;;;;;;-145.41;100.00;58600.66;4991345;28;20034;-76
2023/05/02 10:56:14;;;;;;;10.60;7.90;;;;;;;-145.41;100.00;58600.66;4990645;28;20042;-76
2023/05/02 10:58:42;;;;;;;12.75;8.90;;;;;;;-145.41;100.00;58600.66;4973302;28;20049;-77
2023/05/02 11:01:29;;;;;;;13.00;8.63;;;;;;;-145.41;100.00;58600.66;4990568;28;20093;-76
2023/05/02 11:04:06;;;;;;;13.95;8.75;;;;;;;-145.41;100.00;58600.66;4991541;28;20188;-74
2023/05/02 11:06:34;;;;;;;12.82;8.50;;;;;;;-145.41;100.00;58600.66;4974065;28;20046;-74
2023/05/02 11:09:12;;;;;;;10.52;8.20;;;;;;;-145.41;100.00;58600.66;4990658;28;20096;-74
2023/05/02 11:11:41;;;;;;;13.65;8.85;;;;;;;-145.41;100.00;58600.66;4990656;28;20076;-73